Delta Virtual Airport Information Service

Sint Maarten Princess Juliana International Airport

ICAO: TNCM Country: Netherlands
Latitude: 18.041 Longitude: -63.1089
Latest Arrival : DAC286 (TAPA-TNCM) Latest Departure : DAL919 (1) (TNCM-KATL)


WX CaptureLIVE
Data provided by noaa.gov | Fetched at 14:35:04

METAR : TNCM 091900Z 06009KT 030V090 9999 SCT018 31/23 Q1017 NOSIG

TAF : TNCM 091720Z 0918/1018 08012KT P6SM FEW020 SCT035 FM100400 07008KT P6SM VCSH SCT018 SCT035 FM101430 10012KT P6SM FEW022 FEW050


Runway Data for TNCM
Data provided by openaviationdata.com

Runway ID Mag Var Hdg Length Elevation Surface ILS Freq ILS Id ILS Slope
10 -13 95° 7670 ft 0 ft Asphalt -- -- --
28 -13 275° 7670 ft 0 ft Asphalt -- -- --

Sint Maarten Princess Juliana International Airport, Netherlands
Use only for reference purposes



Not for navigational purposes.